sensor_id;sensor_type;location;lat;lon;timestamp;pressure;altitude;pressure_sealevel;temperature;humidity
6034;BME280;3045;43.226;27.858;2023-03-01T00:01:29;-5318.19;;;5.68;100.00
6034;BME280;3045;43.226;27.858;2023-03-01T00:03:57;-5001.22;;;5.53;100.00
6034;BME280;3045;43.226;27.858;2023-03-01T00:06:26;-5001.38;;;5.58;100.00
6034;BME280;3045;43.226;27.858;2023-03-01T00:08:53;-4684.72;;;5.52;100.00
6034;BME280;3045;43.226;27.858;2023-03-01T00:11:23;-4368.22;;;5.52;100.00
6034;BME280;3045;43.226;27.858;2023-03-01T00:13:52;-4367.88;;;5.35;100.00
6034;BME280;3045;43.226;27.858;2023-03-01T00:16:21;-4368.25;;;5.53;100.00
6034;BME280;3045;43.226;27.858;2023-03-01T00:18:48;-5001.53;;;5.63;100.00
6034;BME280;3045;43.226;27.858;2023-03-01T00:21:16;-5001.00;;;5.46;100.00
6034;BME280;3045;43.226;27.858;2023-03-01T00:23:43;-5634.75;;;5.70;100.00
6034;BME280;3045;43.226;27.858;2023-03-01T00:26:12;-4368.63;;;5.71;100.00
6034;BME280;3045;43.226;27.858;2023-03-01T00:28:41;-4368.41;;;5.61;100.00
6034;BME280;3045;43.226;27.858;2023-03-01T00:31:10;-5318.19;;;5.68;100.00
6034;BME280;3045;43.226;27.858;2023-03-01T00:33:37;-4367.97;;;5.40;100.00
6034;BME280;3045;43.226;27.858;2023-03-01T00:36:05;-5001.06;;;5.49;100.00
6034;BME280;3045;43.226;27.858;2023-03-01T00:38:35;-5633.59;;;5.42;100.00
6034;BME280;3045;43.226;27.858;2023-03-01T00:41:05;-6898.50;;;5.39;100.00
6034;BME280;3045;43.226;27.858;2023-03-01T00:43:32;-7214.59;;;5.38;100.00
6034;BME280;3045;43.226;27.858;2023-03-01T00:46:04;-6265.75;;;5.34;100.00
6034;BME280;3045;43.226;27.858;2023-03-01T00:48:34;-6582.09;;;5.36;100.00
6034;BME280;3045;43.226;27.858;2023-03-01T00:51:05;-6265.59;;;5.31;100.00
6034;BME280;3045;43.226;27.858;2023-03-01T00:53:33;-6265.00;;;5.20;100.00
6034;BME280;3045;43.226;27.858;2023-03-01T00:56:00;-6265.84;;;5.35;100.00
6034;BME280;3045;43.226;27.858;2023-03-01T00:58:27;-5948.78;;;5.18;100.00
6034;BME280;3045;43.226;27.858;2023-03-01T01:00:54;-6581.97;;;5.34;100.00
6034;BME280;3045;43.226;27.858;2023-03-01T01:03:22;-6582.59;;;5.45;100.00
6034;BME280;3045;43.226;27.858;2023-03-01T01:05:50;-4051.38;;;5.31;100.00
6034;BME280;3045;43.226;27.858;2023-03-01T01:08:17;-3101.94;;;5.23;100.00
6034;BME280;3045;43.226;27.858;2023-03-01T01:10:45;-3418.44;;;5.29;100.00
6034;BME280;3045;43.226;27.858;2023-03-01T01:13:12;-4051.34;;;5.30;100.00
6034;BME280;3045;43.226;27.858;2023-03-01T01:15:39;-4367.81;;;5.32;100.00
6034;BME280;3045;43.226;27.858;2023-03-01T01:18:07;-2785.41;;;5.35;100.00
6034;BME280;3045;43.226;27.858;2023-03-01T01:20:36;-2468.81;;;5.36;100.00
6034;BME280;3045;43.226;27.858;2023-03-01T01:23:05;-2152.13;;;5.41;100.00
6034;BME280;3045;43.226;27.858;2023-03-01T01:25:34;-3418.56;;;5.48;100.00
6034;BME280;3045;43.226;27.858;2023-03-01T01:28:01;-3735.09;;;5.45;100.00
6034;BME280;3045;43.226;27.858;2023-03-01T01:30:28;-4367.78;;;5.31;100.00
6034;BME280;3045;43.226;27.858;2023-03-01T01:32:55;-5317.13;;;5.39;100.00
6034;BME280;3045;43.226;27.858;2023-03-01T01:35:22;-6266.47;;;5.47;100.00
6034;BME280;3045;43.226;27.858;2023-03-01T01:37:50;-5950.31;;;5.51;100.00
6034;BME280;3045;43.226;27.858;2023-03-01T01:40:17;-5634.16;;;5.56;100.00
6034;BME280;3045;43.226;27.858;2023-03-01T01:42:44;-5317.34;;;5.45;100.00
6034;BME280;3045;43.226;27.858;2023-03-01T01:45:35;-5317.72;;;5.56;100.00
6034;BME280;3045;43.226;27.858;2023-03-01T01:48:04;-6267.00;;;5.58;100.00
6034;BME280;3045;43.226;27.858;2023-03-01T01:50:33;-6583.81;;;5.66;100.00
6034;BME280;3045;43.226;27.858;2023-03-01T01:53:09;-6899.59;;;5.57;100.00
6034;BME280;3045;43.226;27.858;2023-03-01T01:55:42;-7533.25;;;5.73;100.00
6034;BME280;3045;43.226;27.858;2023-03-01T01:58:11;-7849.25;;;5.69;100.00
6034;BME280;3045;43.226;27.858;2023-03-01T02:00:40;-7216.69;;;5.70;100.00
6034;BME280;3045;43.226;27.858;2023-03-01T02:03:10;-7849.75;;;5.76;100.00
6034;BME280;3045;43.226;27.858;2023-03-01T02:05:42;-7849.31;;;5.70;100.00
6034;BME280;3045;43.226;27.858;2023-03-01T02:08:13;-8798.19;;;5.73;100.00
6034;BME280;3045;43.226;27.858;2023-03-01T02:10:40;-8798.44;;;5.75;100.00
6034;BME280;3045;43.226;27.858;2023-03-01T02:13:08;-9113.47;;;5.64;100.00
6034;BME280;3045;43.226;27.858;2023-03-01T02:15:37;-8799.28;;;5.84;100.00
6034;BME280;3045;43.226;27.858;2023-03-01T02:18:05;-8165.97;;;5.75;100.00
6034;BME280;3045;43.226;27.858;2023-03-01T02:20:37;-6901.38;;;5.86;100.00
6034;BME280;3045;43.226;27.858;2023-03-01T02:23:06;-6900.41;;;5.70;100.00
6034;BME280;3045;43.226;27.858;2023-03-01T02:25:39;-7849.28;;;5.70;100.00
6034;BME280;3045;43.226;27.858;2023-03-01T02:30:40;-7216.41;;;5.65;100.00
6034;BME280;3045;43.226;27.858;2023-03-01T02:33:29;-7848.06;;;5.54;100.00
6034;BME280;3045;43.226;27.858;2023-03-01T02:35:58;-7215.78;;;5.56;100.00
6034;BME280;3045;43.226;27.858;2023-03-01T02:38:28;-7532.81;;;5.67;100.00
6034;BME280;3045;43.226;27.858;2023-03-01T02:40:55;-7532.19;;;5.59;100.00
6034;BME280;3045;43.226;27.858;2023-03-01T02:43:27;-7532.25;;;5.59;100.00
6034;BME280;3045;43.226;27.858;2023-03-01T02:45:58;-7534.03;;;5.84;100.00
6034;BME280;3045;43.226;27.858;2023-03-01T02:48:25;-5951.50;;;5.76;100.00
6034;BME280;3045;43.226;27.858;2023-03-01T02:51:02;-2785.25;;;5.72;100.00
6034;BME280;3045;43.226;27.858;2023-03-01T02:53:37;-4368.69;;;5.74;100.00
6034;BME280;3045;43.226;27.858;2023-03-01T02:56:06;-5318.34;;;5.72;100.00
6034;BME280;3045;43.226;27.858;2023-03-01T02:58:38;-5001.63;;;5.66;100.00
6034;BME280;3045;43.226;27.858;2023-03-01T03:01:12;-3418.56;;;5.49;100.00
6034;BME280;3045;43.226;27.858;2023-03-01T03:03:41;-3418.53;;;5.43;100.00
6034;BME280;3045;43.226;27.858;2023-03-01T03:06:08;-3101.97;;;5.48;100.00
6034;BME280;3045;43.226;27.858;2023-03-01T03:08:36;-2468.63;;;5.56;100.00
6034;BME280;3045;43.226;27.858;2023-03-01T03:11:03;-1835.25;;;5.50;100.00
6034;BME280;3045;43.226;27.858;2023-03-01T03:13:30;-2151.91;;;5.56;100.00
6034;BME280;3045;43.226;27.858;2023-03-01T03:15:57;-2151.84;;;5.60;100.00
6034;BME280;3045;43.226;27.858;2023-03-01T03:18:26;-884.16;;;5.71;100.00
6034;BME280;3045;43.226;27.858;2023-03-01T03:20:53;-884.28;;;5.68;100.00
6034;BME280;3045;43.226;27.858;2023-03-01T03:23:22;-1834.84;;;5.71;100.00
6034;BME280;3045;43.226;27.858;2023-03-01T03:25:50;-1518.19;;;5.63;100.00
6034;BME280;3045;43.226;27.858;2023-03-01T03:28:17;-1201.25;;;5.66;100.00
6034;BME280;3045;43.226;27.858;2023-03-01T03:30:44;-1201.22;;;5.67;100.00
6034;BME280;3045;43.226;27.858;2023-03-01T03:33:12;-1517.88;;;5.76;100.00
6034;BME280;3045;43.226;27.858;2023-03-01T03:35:42;-1200.50;;;5.90;100.00
6034;BME280;3045;43.226;27.858;2023-03-01T03:38:12;-1199.97;;;6.08;100.00
6034;BME280;3045;43.226;27.858;2023-03-01T03:40:43;2923.53;;;5.94;100.00
6034;BME280;3045;43.226;27.858;2023-03-01T03:43:12;6733.28;;;5.84;100.00
6034;BME280;3045;43.226;27.858;2023-03-01T03:45:40;7366.78;;;5.72;100.00
6034;BME280;3045;43.226;27.858;2023-03-01T03:48:08;7685.41;;;5.77;100.00
6034;BME280;3045;43.226;27.858;2023-03-01T03:50:36;5780.25;;;5.85;100.00
6034;BME280;3045;43.226;27.858;2023-03-01T03:53:06;4824.72;;;5.64;100.00
6034;BME280;3045;43.226;27.858;2023-03-01T03:55:33;3873.59;;;5.73;100.00
6034;BME280;3045;43.226;27.858;2023-03-01T03:58:02;1968.63;;;5.60;100.00
6034;BME280;3045;43.226;27.858;2023-03-01T04:00:33;1652.16;;;5.69;100.00
6034;BME280;3045;43.226;27.858;2023-03-01T04:03:00;383.81;;;5.71;100.00
6034;BME280;3045;43.226;27.858;2023-03-01T04:05:28;-566.91;;;5.79;100.00
6034;BME280;3045;43.226;27.858;2023-03-01T04:07:56;385.03;;;5.92;100.00
6034;BME280;3045;43.226;27.858;2023-03-01T04:10:35;384.63;;;5.85;100.00
6034;BME280;3045;43.226;27.858;2023-03-01T04:13:03;-883.44;;;5.91;100.00
6034;BME280;3045;43.226;27.858;2023-03-01T04:15:31;-250.03;;;5.75;100.00
6034;BME280;3045;43.226;27.858;2023-03-01T04:17:59;-1517.97;;;5.71;100.00
6034;BME280;3045;43.226;27.858;2023-03-01T04:20:28;-1518.16;;;5.64;100.00
6034;BME280;3045;43.226;27.858;2023-03-01T04:22:58;-2468.41;;;5.79;100.00
6034;BME280;3045;43.226;27.858;2023-03-01T04:25:25;-2151.50;;;5.83;100.00
6034;BME280;3045;43.226;27.858;2023-03-01T04:27:55;-1201.75;;;5.49;100.00
6034;BME280;3045;43.226;27.858;2023-03-01T04:30:22;-1834.69;;;5.79;100.00
6034;BME280;3045;43.226;27.858;2023-03-01T04:32:51;-1200.75;;;5.82;100.00
6034;BME280;3045;43.226;27.858;2023-03-01T04:35:17;-883.81;;;5.81;100.00
6034;BME280;3045;43.226;27.858;2023-03-01T04:37:44;-883.69;;;5.85;100.00
6034;BME280;3045;43.226;27.858;2023-03-01T04:40:12;67.25;;;5.80;100.00
6034;BME280;3045;43.226;27.858;2023-03-01T04:42:41;68.06;;;5.96;100.00
6034;BME280;3045;43.226;27.858;2023-03-01T04:45:10;1335.06;;;5.70;100.00
6034;BME280;3045;43.226;27.858;2023-03-01T04:47:40;1653.09;;;5.81;100.00
6034;BME280;3045;43.226;27.858;2023-03-01T04:50:09;2286.41;;;5.67;100.00
6034;BME280;3045;43.226;27.858;2023-03-01T04:52:37;2287.94;;;5.85;100.00
6034;BME280;3045;43.226;27.858;2023-03-01T04:55:05;2921.75;;;5.76;100.00
6034;BME280;3045;43.226;27.858;2023-03-01T04:57:34;3240.28;;;5.87;100.00
6034;BME280;3045;43.226;27.858;2023-03-01T05:00:01;3558.66;;;5.96;100.00
6034;BME280;3045;43.226;27.858;2023-03-01T05:02:47;6416.81;;;5.92;100.00
6034;BME280;3045;43.226;27.858;2023-03-01T05:05:22;7370.19;;;5.92;100.00
6034;BME280;3045;43.226;27.858;2023-03-01T05:07:52;11507.41;;;6.04;100.00
6034;BME280;3045;43.226;27.858;2023-03-01T05:10:19;13733.78;;;5.94;100.00
6034;BME280;3045;43.226;27.858;2023-03-01T05:12:46;14687.28;;;5.87;100.00
6034;BME280;3045;43.226;27.858;2023-03-01T05:15:13;12138.81;;;5.82;100.00
6034;BME280;3045;43.226;27.858;2023-03-01T05:17:40;11185.38;;;5.87;100.00
6034;BME280;3045;43.226;27.858;2023-03-01T05:20:10;11504.53;;;5.91;100.00
6034;BME280;3045;43.226;27.858;2023-03-01T05:22:37;12458.75;;;5.89;100.00
6034;BME280;3045;43.226;27.858;2023-03-01T05:25:05;13094.66;;;5.86;100.00
6034;BME280;3045;43.226;27.858;2023-03-01T05:27:34;14051.56;;;5.92;100.00
6034;BME280;3045;43.226;27.858;2023-03-01T05:30:01;16914.25;;;5.77;100.00
6034;BME280;3045;43.226;27.858;2023-03-01T05:32:40;14683.63;;;5.75;100.00
6034;BME280;3045;43.226;27.858;2023-03-01T05:35:10;14683.63;;;5.75;100.00
6034;BME280;3045;43.226;27.858;2023-03-01T05:37:39;15641.47;;;5.82;100.00
6034;BME280;3045;43.226;27.858;2023-03-01T05:40:09;17235.13;;;5.83;100.00
6034;BME280;3045;43.226;27.858;2023-03-01T05:42:42;17869.94;;;5.75;100.00
6034;BME280;3045;43.226;27.858;2023-03-01T05:45:10;13728.97;;;5.77;100.00
6034;BME280;3045;43.226;27.858;2023-03-01T05:47:38;13411.28;;;5.79;100.00
6034;BME280;3045;43.226;27.858;2023-03-01T05:50:11;12776.97;;;5.88;100.00
6034;BME280;3045;43.226;27.858;2023-03-01T05:52:39;11819.59;;;5.78;100.00
6034;BME280;3045;43.226;27.858;2023-03-01T05:55:07;12140.19;;;5.88;100.00
6034;BME280;3045;43.226;27.858;2023-03-01T05:57:34;13413.84;;;5.89;100.00
6034;BME280;3045;43.226;27.858;2023-03-01T06:00:01;15322.88;;;5.82;100.00
6034;BME280;3045;43.226;27.858;2023-03-01T06:02:28;15645.91;;;5.97;100.00
6034;BME280;3045;43.226;27.858;2023-03-01T06:04:55;14688.91;;;5.93;100.00
6034;BME280;3045;43.226;27.858;2023-03-01T06:07:24;14056.47;;;6.10;100.00
6034;BME280;3045;43.226;27.858;2023-03-01T06:09:50;14685.38;;;5.81;100.00
6034;BME280;3045;43.226;27.858;2023-03-01T06:12:17;14054.25;;;6.02;100.00
6034;BME280;3045;43.226;27.858;2023-03-01T06:14:45;12143.69;;;6.02;100.00
6034;BME280;3045;43.226;27.858;2023-03-01T06:17:12;12143.56;;;6.02;100.00
6034;BME280;3045;43.226;27.858;2023-03-01T06:19:39;12786.84;;;6.27;100.00
6034;BME280;3045;43.226;27.858;2023-03-01T06:22:06;14698.94;;;6.28;100.00
6034;BME280;3045;43.226;27.858;2023-03-01T06:24:35;15971.94;;;6.21;100.00
6034;BME280;3045;43.226;27.858;2023-03-01T06:27:02;15018.88;;;6.32;100.00
6034;BME280;3045;43.226;27.858;2023-03-01T06:29:29;15336.78;;;6.29;100.00
6034;BME280;3045;43.226;27.858;2023-03-01T06:31:56;15332.41;;;6.14;100.00
6034;BME280;3045;43.226;27.858;2023-03-01T06:34:23;14377.81;;;6.19;100.00
6034;BME280;3045;43.226;27.858;2023-03-01T06:36:49;12786.44;;;6.25;100.00
6034;BME280;3045;43.226;27.858;2023-03-01T06:39:16;14061.53;;;6.28;100.00
6034;BME280;3045;43.226;27.858;2023-03-01T06:41:45;16611.41;;;6.26;100.00
6034;BME280;3045;43.226;27.858;2023-03-01T06:44:12;14695.75;;;6.17;100.00
6034;BME280;3045;43.226;27.858;2023-03-01T06:46:41;14703.75;;;6.45;100.00
6034;BME280;3045;43.226;27.858;2023-03-01T06:49:08;16619.19;;;6.51;100.00
6034;BME280;3045;43.226;27.858;2023-03-01T06:51:36;20450.78;;;6.53;100.00
6034;BME280;3045;43.226;27.858;2023-03-01T06:54:03;23000.47;;;6.37;100.00
6034;BME280;3045;43.226;27.858;2023-03-01T06:56:30;21403.16;;;6.38;100.00
6034;BME280;3045;43.226;27.858;2023-03-01T06:58:59;22679.00;;;6.33;100.00
6034;BME280;3045;43.226;27.858;2023-03-01T07:01:29;22991.06;;;6.15;100.00
6034;BME280;3045;43.226;27.858;2023-03-01T07:03:56;22037.13;;;6.26;100.00
6034;BME280;3045;43.226;27.858;2023-03-01T07:06:25;15651.59;;;6.16;100.00
6034;BME280;3045;43.226;27.858;2023-03-01T07:08:52;15018.59;;;6.31;100.00
6034;BME280;3045;43.226;27.858;2023-03-01T07:11:19;14704.06;;;6.46;100.00
6034;BME280;3045;43.226;27.858;2023-03-01T07:13:46;15664.06;;;6.57;100.00
6034;BME280;3045;43.226;27.858;2023-03-01T07:16:14;15973.19;;;6.25;100.00
6034;BME280;3045;43.226;27.858;2023-03-01T07:18:42;15019.78;;;6.35;100.00
6034;BME280;3045;43.226;27.858;2023-03-01T07:21:11;16614.16;;;6.35;100.00
6034;BME280;3045;43.226;27.858;2023-03-01T07:23:39;17560.50;;;6.03;100.00
6034;BME280;3045;43.226;27.858;2023-03-01T07:26:06;17243.47;;;6.09;100.00
6034;BME280;3045;43.226;27.858;2023-03-01T07:28:35;12783.72;;;6.15;100.00
6034;BME280;3045;43.226;27.858;2023-03-01T07:31:04;12466.16;;;6.18;100.00
6034;BME280;3045;43.226;27.858;2023-03-01T07:33:33;12148.81;;;6.23;100.00
6034;BME280;3045;43.226;27.858;2023-03-01T07:36:04;12144.94;;;6.07;100.00
6034;BME280;3045;43.226;27.858;2023-03-01T07:38:31;11193.31;;;6.22;100.00
6034;BME280;3045;43.226;27.858;2023-03-01T07:40:59;10547.50;;;5.80;100.00
6034;BME280;3045;43.226;27.858;2023-03-01T07:43:27;8642.88;;;5.98;100.00
6034;BME280;3045;43.226;27.858;2023-03-01T07:45:58;5779.81;;;5.82;100.00
6034;BME280;3045;43.226;27.858;2023-03-01T07:48:25;4511.03;;;5.94;100.00
6034;BME280;3045;43.226;27.858;2023-03-01T07:50:53;4512.25;;;6.04;100.00
6034;BME280;3045;43.226;27.858;2023-03-01T07:53:20;4196.38;;;6.19;100.00
6034;BME280;3045;43.226;27.858;2023-03-01T07:55:51;7372.06;;;6.04;100.00
6034;BME280;3045;43.226;27.858;2023-03-01T07:58:26;7058.69;;;6.31;100.00
6034;BME280;3045;43.226;27.858;2023-03-01T08:00:53;8653.75;;;6.55;100.00
6034;BME280;3045;43.226;27.858;2023-03-01T08:03:20;12787.34;;;6.29;100.00
6034;BME280;3045;43.226;27.858;2023-03-01T08:05:46;14056.34;;;6.09;100.00
6034;BME280;3045;43.226;27.858;2023-03-01T08:08:15;14697.34;;;6.22;100.00
6034;BME280;3045;43.226;27.858;2023-03-01T08:10:41;17242.31;;;6.05;100.00
6034;BME280;3045;43.226;27.858;2023-03-01T08:13:08;16294.59;;;6.33;100.00
6034;BME280;3045;43.226;27.858;2023-03-01T08:15:35;18527.03;;;6.31;100.00
6034;BME280;3045;43.226;27.858;2023-03-01T08:18:02;20758.88;;;6.24;100.00
6034;BME280;3045;43.226;27.858;2023-03-01T08:20:29;23324.84;;;6.49;100.00
6034;BME280;3045;43.226;27.858;2023-03-01T08:22:57;26183.91;;;6.08;100.00
6034;BME280;3045;43.226;27.858;2023-03-01T08:25:26;25249.25;;;6.61;100.00
6034;BME280;3045;43.226;27.858;2023-03-01T08:27:53;33264.34;;;6.74;100.00
6034;BME280;3045;43.226;27.858;2023-03-01T08:30:20;44177.34;;;6.60;100.00
6034;BME280;3045;43.226;27.858;2023-03-01T08:32:49;43206.19;;;6.52;100.00
6034;BME280;3045;43.226;27.858;2023-03-01T08:35:16;49640.75;;;6.48;100.00
6034;BME280;3045;43.226;27.858;2023-03-01T08:37:43;48687.13;;;6.63;100.00
6034;BME280;3045;43.226;27.858;2023-03-01T08:40:11;47726.59;;;6.70;100.00
6034;BME280;3045;43.226;27.858;2023-03-01T08:42:40;60623.94;;;6.59;100.00
6034;BME280;3045;43.226;27.858;2023-03-01T08:45:10;50596.84;;;6.36;100.00
6034;BME280;3045;43.226;27.858;2023-03-01T08:47:38;50640.66;;;6.86;100.00
6034;BME280;3045;43.226;27.858;2023-03-01T08:50:05;63546.34;;;6.69;100.00
6034;BME280;3045;43.226;27.858;2023-03-01T08:52:33;66777.19;;;6.63;100.00
6034;BME280;3045;43.226;27.858;2023-03-01T08:55:01;70657.66;;;6.56;100.00
6034;BME280;3045;43.226;27.858;2023-03-01T08:57:28;62553.41;;;6.49;100.00
6034;BME280;3045;43.226;27.858;2023-03-01T08:59:57;66763.91;;;6.52;100.00
6034;BME280;3045;43.226;27.858;2023-03-01T09:02:24;67067.47;;;6.34;100.00
6034;BME280;3045;43.226;27.858;2023-03-01T09:04:50;68063.03;;;6.55;100.00
6034;BME280;3045;43.226;27.858;2023-03-01T09:07:17;68053.63;;;6.47;100.00
6034;BME280;3045;43.226;27.858;2023-03-01T09:09:44;67090.06;;;6.54;100.00
6034;BME280;3045;43.226;27.858;2023-03-01T09:12:11;73916.75;;;6.68;100.00
6034;BME280;3045;43.226;27.858;2023-03-01T09:14:38;74596.19;;;6.92;100.00
6034;BME280;3045;43.226;27.858;2023-03-01T09:17:07;76222.50;;;6.94;100.00
6034;BME280;3045;43.226;27.858;2023-03-01T09:19:35;99361.47;;;6.87;100.00
6034;BME280;3045;43.226;27.858;2023-03-01T09:22:03;98668.47;;;6.64;100.00
6034;BME280;3045;43.226;27.858;2023-03-01T09:24:29;92158.44;;;6.78;100.00
6034;BME280;3045;43.226;27.858;2023-03-01T09:26:56;87260.22;;;6.74;100.00
6034;BME280;3045;43.226;27.858;2023-03-01T09:29:24;75853.16;;;6.59;100.00
6034;BME280;3045;43.226;27.858;2023-03-01T09:31:51;71970.94;;;6.69;100.00
6034;BME280;3045;43.226;27.858;2023-03-01T09:34:21;66154.63;;;6.85;100.00
6034;BME280;3045;43.226;27.858;2023-03-01T09:36:49;72001.34;;;6.94;100.00
6034;BME280;3045;43.226;27.858;2023-03-01T09:39:16;80474.38;;;7.12;100.00
6034;BME280;3045;43.226;27.858;2023-03-01T09:41:50;84931.56;;;6.41;100.00
6034;BME280;3045;43.226;27.858;2023-03-01T09:44:27;71320.31;;;6.68;100.00
6034;BME280;3045;43.226;27.858;2023-03-01T09:46:57;69018.41;;;6.40;100.00
6034;BME280;3045;43.226;27.858;2023-03-01T09:49:27;63857.25;;;6.58;100.00
6034;BME280;3045;43.226;27.858;2023-03-01T09:51:59;61273.25;;;6.61;100.00
6034;BME280;3045;43.226;27.858;2023-03-01T09:54:27;64514.00;;;6.66;100.00
6034;BME280;3045;43.226;27.858;2023-03-01T09:57:03;70331.00;;;6.54;100.00
6034;BME280;3045;43.226;27.858;2023-03-01T09:59:42;69691.13;;;6.61;100.00
6034;BME280;3045;43.226;27.858;2023-03-01T10:02:23;73249.91;;;6.54;100.00
6034;BME280;3045;43.226;27.858;2023-03-01T10:04:53;66772.56;;;6.59;100.00
6034;BME280;3045;43.226;27.858;2023-03-01T10:07:27;68070.09;;;6.61;100.00
6034;BME280;3045;43.226;27.858;2023-03-01T10:09:57;64824.25;;;6.54;100.00
6034;BME280;3045;43.226;27.858;2023-03-01T10:12:30;67723.84;;;6.41;100.00
6034;BME280;3045;43.226;27.858;2023-03-01T10:15:04;72234.31;;;6.20;100.00
6034;BME280;3045;43.226;27.858;2023-03-01T10:17:36;67393.00;;;6.35;100.00
6034;BME280;3045;43.226;27.858;2023-03-01T10:20:23;68042.44;;;6.37;100.00
6034;BME280;3045;43.226;27.858;2023-03-01T10:22:53;64169.78;;;6.48;100.00
6034;BME280;3045;43.226;27.858;2023-03-01T10:25:31;64818.66;;;6.49;100.00
6034;BME280;3045;43.226;27.858;2023-03-01T10:28:12;69665.84;;;6.40;100.00
6034;BME280;3045;43.226;27.858;2023-03-01T10:30:40;69673.66;;;6.47;100.00
6034;BME280;3045;43.226;27.858;2023-03-01T10:33:16;65780.59;;;6.41;100.00
6034;BME280;3045;43.226;27.858;2023-03-01T10:35:45;62224.59;;;6.43;100.00
6034;BME280;3045;43.226;27.858;2023-03-01T10:38:14;65760.69;;;6.23;100.00
6034;BME280;3045;43.226;27.858;2023-03-01T10:40:53;58649.59;;;6.24;100.00
6034;BME280;3045;43.226;27.858;2023-03-01T10:43:23;53156.97;;;6.16;100.00
6034;BME280;3045;43.226;27.858;2023-03-01T10:45:50;54472.28;;;6.43;100.00
6034;BME280;3045;43.226;27.858;2023-03-01T10:48:19;55457.19;;;6.61;100.00
6034;BME280;3045;43.226;27.858;2023-03-01T10:50:51;64501.16;;;6.55;100.00
6034;BME280;3045;43.226;27.858;2023-03-01T10:53:33;65498.84;;;6.78;100.00
6034;BME280;3045;43.226;27.858;2023-03-01T10:56:02;70679.59;;;6.74;100.00
6034;BME280;3045;43.226;27.858;2023-03-01T10:58:30;64850.06;;;6.77;100.00
6034;BME280;3045;43.226;27.858;2023-03-01T11:00:59;74238.19;;;6.66;100.00
6034;BME280;3045;43.226;27.858;2023-03-01T11:03:28;74882.94;;;6.62;100.00
6034;BME280;3045;43.226;27.858;2023-03-01T11:06:03;73590.25;;;6.67;100.00
6034;BME280;3045;43.226;27.858;2023-03-01T11:08:41;67086.59;;;6.51;100.00
6034;BME280;3045;43.226;27.858;2023-03-01T11:11:31;67734.97;;;6.51;100.00
6034;BME280;3045;43.226;27.858;2023-03-01T11:13:59;67732.66;;;6.49;100.00
6034;BME280;3045;43.226;27.858;2023-03-01T11:16:37;64829.88;;;6.59;100.00
6034;BME280;3045;43.226;27.858;2023-03-01T11:19:19;67775.94;;;6.86;100.00
6034;BME280;3045;43.226;27.858;2023-03-01T11:21:59;85634.06;;;6.76;100.00
6034;BME280;3045;43.226;27.858;2023-03-01T11:24:34;100974.06;;;6.74;100.00
6034;BME280;3045;43.226;27.858;2023-03-01T11:27:08;95755.34;;;6.81;100.00
6034;BME280;3045;43.226;27.858;2023-03-01T11:29:43;109867.09;;;7.00;100.00
6034;BME280;3045;43.226;27.858;2023-03-01T11:32:13;103635.03;;;6.98;100.00
6034;BME280;3045;43.226;27.858;2023-03-01T11:34:44;109548.28;;;7.05;100.00
6034;BME280;3045;43.226;27.858;2023-03-01T11:37:22;104663.47;;;7.24;100.00
6034;BME280;3045;43.226;27.858;2023-03-01T11:39:58;142905.91;;;6.94;100.00
6034;BME280;3045;43.226;27.858;2023-03-01T11:42:35;147785.72;;;6.92;100.00
6034;BME280;3045;43.226;27.858;2023-03-01T11:45:09;147818.44;;;7.05;100.00
6034;BME280;3045;43.226;27.858;2023-03-01T11:47:55;147841.16;;;7.14;100.00
6034;BME280;3045;43.226;27.858;2023-03-01T11:50:32;147853.75;;;7.19;100.00
6034;BME280;3045;43.226;27.858;2023-03-01T11:53:26;147838.66;;;7.13;100.00
6034;BME280;3045;43.226;27.858;2023-03-01T11:56:05;147827.31;;;7.08;100.00
6034;BME280;3045;43.226;27.858;2023-03-01T11:58:47;147809.63;;;7.01;100.00
6034;BME280;3045;43.226;27.858;2023-03-01T12:01:44;147785.72;;;6.92;100.00
6034;BME280;3045;43.226;27.858;2023-03-01T12:04:36;146610.66;;;6.94;100.00
6034;BME280;3045;43.226;27.858;2023-03-01T12:07:14;146079.94;;;6.78;100.00
6034;BME280;3045;43.226;27.858;2023-03-01T12:09:53;138999.75;;;6.87;100.00
6034;BME280;3045;43.226;27.858;2023-03-01T12:12:42;143994.91;;;6.98;100.00
6034;BME280;3045;43.226;27.858;2023-03-01T12:15:42;145868.47;;;6.83;100.00
6034;BME280;3045;43.226;27.858;2023-03-01T12:21:14;141830.03;;;7.07;100.00
6034;BME280;3045;43.226;27.858;2023-03-01T12:23:55;147797.03;;;6.96;100.00
6034;BME280;3045;43.226;27.858;2023-03-01T12:26:30;147841.16;;;7.14;100.00
6034;BME280;3045;43.226;27.858;2023-03-01T12:29:24;147911.78;;;7.42;100.00
6034;BME280;3045;43.226;27.858;2023-03-01T12:35:06;147944.56;;;7.55;100.00
6034;BME280;3045;43.226;27.858;2023-03-01T12:37:46;147987.38;;;7.72;100.00
6034;BME280;3045;43.226;27.858;2023-03-01T12:40:48;147942.03;;;7.54;100.00
6034;BME280;3045;43.226;27.858;2023-03-01T12:43:30;147905.44;;;7.40;100.00
6034;BME280;3045;43.226;27.858;2023-03-01T12:46:14;147929.41;;;7.49;100.00
6034;BME280;3045;43.226;27.858;2023-03-01T12:48:53;147939.50;;;7.53;100.00
6034;BME280;3045;43.226;27.858;2023-03-01T12:51:24;147957.13;;;7.60;100.00
6034;BME280;3045;43.226;27.858;2023-03-01T12:53:54;147919.31;;;7.45;100.00
6034;BME280;3045;43.226;27.858;2023-03-01T12:56:25;147914.25;;;7.43;100.00
6034;BME280;3045;43.226;27.858;2023-03-01T12:59:01;147949.56;;;7.57;100.00
6034;BME280;3045;43.226;27.858;2023-03-01T13:01:38;147972.28;;;7.66;100.00
6034;BME280;3045;43.226;27.858;2023-03-01T13:04:20;147887.81;;;7.32;100.00
6034;BME280;3045;43.226;27.858;2023-03-01T13:07:00;147817.22;;;7.04;100.00
6034;BME280;3045;43.226;27.858;2023-03-01T13:09:34;147826.03;;;7.08;100.00
6034;BME280;3045;43.226;27.858;2023-03-01T13:12:03;147800.81;;;6.98;100.00
6034;BME280;3045;43.226;27.858;2023-03-01T13:14:52;147833.59;;;7.11;100.00
6034;BME280;3045;43.226;27.858;2023-03-01T13:17:31;147803.34;;;6.99;100.00
6034;BME280;3045;43.226;27.858;2023-03-01T13:19:59;147817.22;;;7.04;100.00
6034;BME280;3045;43.226;27.858;2023-03-01T13:22:29;147852.50;;;7.18;100.00
6034;BME280;3045;43.226;27.858;2023-03-01T13:25:10;147834.88;;;7.11;100.00
6034;BME280;3045;43.226;27.858;2023-03-01T13:27:38;147871.41;;;7.26;100.00
6034;BME280;3045;43.226;27.858;2023-03-01T13:30:40;147800.81;;;6.98;100.00
6034;BME280;3045;43.226;27.858;2023-03-01T13:33:45;147853.75;;;7.19;100.00
6034;BME280;3045;43.226;27.858;2023-03-01T13:36:46;147855.03;;;7.19;100.00
6034;BME280;3045;43.226;27.858;2023-03-01T13:39:29;147895.34;;;7.35;100.00